Time;durP1;ratioP1;P1;durP2;ratioP2;P2;SDS_P1;SDS_P2;PMS_P1;PMS_P2;Temp;Humidity;BMP_temperature;BMP_pressure;BME280_temperature;BME280_humidity;BME280_pressure;Samples;Min_cycle;Max_cycle;Signal;HPM_P1;HPM_P2
2022/08/22 00:00:14;;;;;;;1.23;1.23;;;;;;;17.61;83.46;95311.63;4357089;32;20185;-59
2022/08/22 00:02:57;;;;;;;2.03;1.50;;;;;;;17.64;83.35;95315.53;4372569;32;20188;-59
2022/08/22 00:05:30;;;;;;;4.87;1.67;;;;;;;17.73;82.71;95308.94;4374435;32;20197;-59
2022/08/22 00:08:14;;;;;;;1.50;1.50;;;;;;;17.63;82.99;95319.34;4372335;32;20275;-58
2022/08/22 00:11:02;;;;;;;0.97;0.97;;;;;;;17.69;82.80;95310.72;4365082;32;20212;-58
2022/08/22 00:13:39;;;;;;;8.23;1.77;;;;;;;17.74;82.76;95304.34;4359245;32;20180;-58
2022/08/22 00:16:15;;;;;;;0.90;0.90;;;;;;;17.82;82.14;95306.91;4369631;32;20177;-58
2022/08/22 00:19:10;;;;;;;1.20;1.20;;;;;;;17.75;82.37;95306.69;4360842;32;20188;-59
2022/08/22 00:21:47;;;;;;;0.97;0.97;;;;;;;17.89;81.87;95310.91;4341961;32;20199;-59
2022/08/22 00:24:22;;;;;;;1.53;1.53;;;;;;;17.72;82.71;95315.41;4363786;32;20194;-59
2022/08/22 00:27:03;;;;;;;0.83;0.83;;;;;;;17.66;82.98;95311.44;4372236;32;20184;-58
2022/08/22 00:29:38;;;;;;;1.20;1.20;;;;;;;17.69;83.31;95313.41;4368232;32;20180;-58
2022/08/22 00:32:14;;;;;;;1.20;1.03;;;;;;;17.56;83.54;95305.69;4348290;32;20249;-59
2022/08/22 00:35:04;;;;;;;2.00;1.30;;;;;;;17.52;83.80;95316.31;4364479;32;20196;-59
2022/08/22 00:38:02;;;;;;;1.30;1.30;;;;;;;17.61;83.43;95311.63;4358028;32;20177;-59
2022/08/22 00:40:56;;;;;;;1.13;1.13;;;;;;;17.67;83.06;95315.66;4356136;32;20185;-59
2022/08/22 00:43:50;;;;;;;1.90;1.23;;;;;;;17.64;83.08;95316.34;4371567;32;20220;-59
2022/08/22 00:46:57;;;;;;;0.90;0.90;;;;;;;17.67;83.30;95318.31;4351275;32;20180;-59
2022/08/22 00:49:48;;;;;;;0.80;0.80;;;;;;;17.68;82.99;95311.84;4346635;32;20220;-58
2022/08/22 00:52:31;;;;;;;0.70;0.70;;;;;;;17.68;83.19;95311.06;4358303;32;20185;-59
2022/08/22 00:55:35;;;;;;;1.63;1.53;;;;;;;17.50;83.66;95310.50;4367058;32;20250;-59
2022/08/22 00:58:25;;;;;;;2.63;1.50;;;;;;;17.61;83.25;95303.56;4360772;32;20184;-59
2022/08/22 01:00:58;;;;;;;1.73;1.63;;;;;;;17.43;84.28;95311.09;4353059;32;20246;-58
2022/08/22 01:03:42;;;;;;;0.87;0.87;;;;;;;17.31;84.86;95313.75;4360195;32;20197;-59
2022/08/22 01:06:19;;;;;;;1.40;1.37;;;;;;;17.32;84.59;95312.66;4364188;32;20207;-59
2022/08/22 01:09:17;;;;;;;0.67;0.67;;;;;;;17.47;84.29;95311.97;4360112;32;20184;-59
2022/08/22 01:12:11;;;;;;;2.03;1.50;;;;;;;17.35;84.59;95316.56;4360258;32;20327;-59
2022/08/22 01:14:44;;;;;;;1.10;1.10;;;;;;;17.28;84.75;95310.97;4366159;32;20248;-59
2022/08/22 01:17:39;;;;;;;1.10;1.10;;;;;;;17.35;84.65;95313.87;4344775;32;20214;-59
2022/08/22 01:20:23;;;;;;;1.50;1.43;;;;;;;17.21;85.35;95314.22;4361932;32;20181;-59
2022/08/22 01:23:06;;;;;;;0.90;0.90;;;;;;;17.28;85.52;95317.09;4358919;32;20266;-58
2022/08/22 01:26:13;;;;;;;1.67;1.67;;;;;;;17.41;85.06;95304.50;4353251;32;20189;-59
2022/08/22 01:29:09;;;;;;;0.97;0.97;;;;;;;17.39;84.73;95306.72;4349094;32;20172;-59
2022/08/22 01:31:53;;;;;;;0.90;0.90;;;;;;;17.29;85.30;95301.81;4359848;32;20189;-58
2022/08/22 01:34:30;;;;;;;1.30;1.30;;;;;;;17.23;85.42;95300.47;4350612;32;20189;-59
2022/08/22 01:37:27;;;;;;;1.20;1.20;;;;;;;17.29;85.44;95299.91;4361981;32;20271;-59
2022/08/22 01:40:07;;;;;;;0.97;0.97;;;;;;;17.34;85.11;95302.38;4365303;32;20224;-59
2022/08/22 01:43:19;;;;;;;0.80;0.80;;;;;;;17.23;85.58;95298.59;4365222;32;20219;-59
2022/08/22 01:46:07;;;;;;;1.20;0.97;;;;;;;17.15;85.64;95297.56;4370176;32;20263;-59
2022/08/22 01:49:19;;;;;;;1.43;1.33;;;;;;;17.18;86.06;95299.59;4349424;32;20203;-59
2022/08/22 01:51:55;;;;;;;1.07;1.07;;;;;;;17.03;86.14;95308.31;4340763;32;20181;-59
2022/08/22 01:54:33;;;;;;;0.70;0.70;;;;;;;17.15;85.74;95308.28;4358974;32;20176;-59
2022/08/22 01:57:06;;;;;;;1.43;0.93;;;;;;;17.14;85.56;95306.72;4371191;32;20230;-59
2022/08/22 01:59:40;;;;;;;1.53;1.43;;;;;;;17.24;85.15;95302.84;4371315;32;20223;-58
2022/08/22 02:02:17;;;;;;;1.50;1.50;;;;;;;17.16;85.38;95306.41;4361766;32;20219;-60
2022/08/22 02:05:16;;;;;;;1.03;1.03;;;;;;;17.15;85.78;95302.16;4352805;32;20235;-59
2022/08/22 02:07:59;;;;;;;0.70;0.70;;;;;;;17.22;85.49;95304.28;4361043;32;20196;-59
2022/08/22 02:10:41;;;;;;;1.03;1.03;;;;;;;17.21;85.52;95300.81;4347303;32;20181;-59
2022/08/22 02:13:29;;;;;;;3.73;1.80;;;;;;;17.21;85.24;95303.50;4358951;32;20185;-59
2022/08/22 02:16:29;;;;;;;1.13;0.93;;;;;;;17.13;85.69;95302.47;4359030;32;20192;-59
2022/08/22 02:19:19;;;;;;;0.97;0.97;;;;;;;17.16;85.13;95296.47;4330809;32;20275;-58
2022/08/22 02:22:00;;;;;;;1.77;1.43;;;;;;;17.07;85.87;95300.34;4361483;32;20209;-59
2022/08/22 02:24:31;;;;;;;1.40;1.33;;;;;;;17.16;85.57;95301.03;4362202;32;20259;-59
2022/08/22 02:27:04;;;;;;;1.00;1.00;;;;;;;17.06;86.16;95302.25;4357826;32;20203;-59
2022/08/22 02:29:44;;;;;;;1.17;1.17;;;;;;;17.17;85.62;95297.25;4359350;32;20204;-59
2022/08/22 02:32:25;;;;;;;2.77;1.47;;;;;;;17.11;86.23;95298.56;4367769;32;20189;-59
2022/08/22 02:35:02;;;;;;;1.43;1.33;;;;;;;16.93;87.10;95294.53;4370027;32;20193;-59
2022/08/22 02:37:47;;;;;;;0.83;0.83;;;;;;;17.09;86.48;95300.81;4366040;32;20188;-59
2022/08/22 02:40:27;;;;;;;1.00;1.00;;;;;;;17.01;86.91;95299.81;4350226;32;20292;-59
2022/08/22 02:43:18;;;;;;;1.03;1.03;;;;;;;16.90;87.03;95304.03;4349586;32;20283;-59
2022/08/22 02:45:52;;;;;;;1.70;1.60;;;;;;;16.98;87.14;95311.19;4374219;32;20230;-59
2022/08/22 02:48:26;;;;;;;1.10;1.10;;;;;;;17.09;86.23;95306.94;4361444;32;20192;-59
2022/08/22 02:51:23;;;;;;;0.67;0.67;;;;;;;17.04;86.35;95309.84;4377972;32;20184;-59
2022/08/22 02:53:55;;;;;;;1.07;1.07;;;;;;;17.02;86.26;95306.75;4347074;32;20264;-59
2022/08/22 02:56:30;;;;;;;1.20;1.20;;;;;;;17.02;86.18;95311.31;4359916;32;20205;-59
2022/08/22 02:59:10;;;;;;;0.90;0.90;;;;;;;16.96;86.50;95308.06;4364862;32;20263;-59
2022/08/22 03:01:40;;;;;;;1.07;1.07;;;;;;;16.64;87.99;95319.59;4366010;32;20189;-60
2022/08/22 03:04:24;;;;;;;1.40;1.37;;;;;;;16.71;88.10;95314.50;4361747;32;20193;-59
2022/08/22 03:07:18;;;;;;;1.57;1.47;;;;;;;16.72;88.04;95318.75;4346529;32;20231;-59
2022/08/22 03:10:15;;;;;;;1.37;1.37;;;;;;;16.71;88.22;95322.53;4360786;32;20243;-58
2022/08/22 03:12:43;;;;;;;0.83;0.83;;;;;;;16.75;88.23;95316.19;4353831;32;20186;-59
2022/08/22 03:15:21;;;;;;;1.07;1.07;;;;;;;16.76;87.89;95316.97;4364569;32;20200;-59
2022/08/22 03:18:05;;;;;;;1.20;1.10;;;;;;;16.83;87.68;95307.25;4371783;32;20185;-59
2022/08/22 03:20:45;;;;;;;1.03;1.03;;;;;;;16.75;88.26;95307.38;4365828;32;20234;-59
2022/08/22 03:23:13;;;;;;;1.30;1.30;;;;;;;16.82;88.68;95307.59;4345435;32;20219;-58
2022/08/22 03:25:57;;;;;;;1.43;1.37;;;;;;;16.73;88.24;95312.28;4358122;32;20189;-59
2022/08/22 03:28:30;;;;;;;1.13;1.13;;;;;;;16.78;88.27;95320.87;4363478;32;20211;-59
2022/08/22 03:31:08;;;;;;;1.53;1.43;;;;;;;16.90;87.77;95319.31;4362697;32;20260;-59
2022/08/22 03:33:34;;;;;;;9.13;1.33;;;;;;;17.01;86.83;95320.47;4360618;32;20177;-59
2022/08/22 03:36:24;;;;;;;1.07;1.07;;;;;;;16.71;88.28;95319.84;4357421;32;20203;-59
2022/08/22 03:39:31;;;;;;;1.10;1.10;;;;;;;16.75;88.40;95318.09;4346768;32;20188;-59
2022/08/22 03:41:56;;;;;;;4.33;1.87;;;;;;;16.69;88.69;95316.72;4357931;32;20184;-59
2022/08/22 03:44:39;;;;;;;1.00;1.00;;;;;;;16.58;89.20;95318.25;4372085;32;20310;-59
2022/08/22 03:47:39;;;;;;;2.30;1.93;;;;;;;16.65;88.77;95332.66;4360159;32;20181;-59
2022/08/22 03:50:23;;;;;;;0.87;0.87;;;;;;;16.70;88.49;95329.00;4343609;32;20180;-59
2022/08/22 03:53:30;;;;;;;1.03;0.93;;;;;;;16.76;87.98;95327.69;4358005;32;20264;-59
2022/08/22 03:56:38;;;;;;;19.00;2.30;;;;;;;16.79;87.95;95335.06;4341976;32;21305;-59
2022/08/22 03:59:06;;;;;;;1.90;1.80;;;;;;;16.91;87.78;95327.03;4350253;32;20184;-59
2022/08/22 04:02:03;;;;;;;1.10;1.10;;;;;;;16.72;88.40;95337.50;4364618;32;20230;-59
2022/08/22 04:04:53;;;;;;;1.63;1.57;;;;;;;16.52;89.54;95341.75;4345069;32;20224;-59
2022/08/22 04:07:52;;;;;;;1.93;1.83;;;;;;;16.54;89.57;95346.78;4357616;32;20264;-59
2022/08/22 04:10:55;;;;;;;1.10;1.10;;;;;;;16.47;89.73;95342.75;4362009;32;20211;-59
2022/08/22 04:13:48;;;;;;;1.43;1.33;;;;;;;16.54;89.65;95334.19;4359693;32;20168;-58
2022/08/22 04:16:28;;;;;;;2.77;1.33;;;;;;;16.62;89.32;95330.66;4368841;32;20238;-58
2022/08/22 04:19:18;;;;;;;1.23;1.20;;;;;;;16.60;89.40;95337.44;4370751;32;20188;-59
2022/08/22 04:21:56;;;;;;;2.60;2.27;;;;;;;16.61;89.41;95339.00;4362903;32;20239;-59
2022/08/22 04:24:40;;;;;;;1.17;1.07;;;;;;;16.67;89.06;95335.03;4345223;32;20195;-59
2022/08/22 04:27:20;;;;;;;1.27;1.27;;;;;;;16.60;88.93;95332.09;4374728;32;20246;-60
2022/08/22 04:30:11;;;;;;;1.23;1.00;;;;;;;16.58;89.03;95329.75;4348185;32;20207;-58
2022/08/22 04:32:43;;;;;;;2.03;1.93;;;;;;;16.49;89.16;95337.84;4363860;32;20196;-59
2022/08/22 04:35:28;;;;;;;1.90;1.77;;;;;;;16.36;89.98;95341.59;4355582;32;20185;-59
2022/08/22 04:38:08;;;;;;;1.47;1.43;;;;;;;16.33;90.43;95334.22;4343322;32;20251;-58
2022/08/22 04:40:46;;;;;;;1.00;1.00;;;;;;;16.47;90.00;95328.56;4348452;32;20184;-59
2022/08/22 04:43:31;;;;;;;2.73;1.63;;;;;;;16.45;89.82;95339.62;4358980;32;20201;-59
2022/08/22 04:46:01;;;;;;;1.87;1.77;;;;;;;16.54;89.19;95334.19;4371161;32;20184;-58
2022/08/22 04:48:31;;;;;;;2.07;1.47;;;;;;;16.53;89.15;95337.97;4363071;32;20204;-59
2022/08/22 04:51:07;;;;;;;1.50;1.40;;;;;;;16.49;89.17;95337.06;4351286;32;20279;-57
2022/08/22 04:54:01;;;;;;;1.70;1.60;;;;;;;16.54;88.99;95344.13;4356149;32;20180;-59
2022/08/22 04:57:09;;;;;;;1.23;1.23;;;;;;;16.43;89.45;95347.19;4356113;32;20347;-58
2022/08/22 04:59:35;;;;;;;1.50;0.97;;;;;;;16.71;88.32;95341.28;4350847;32;20199;-59
2022/08/22 05:02:05;;;;;;;1.30;1.30;;;;;;;16.64;88.50;95343.72;4373104;32;20226;-59
2022/08/22 05:04:44;;;;;;;1.13;1.13;;;;;;;16.67;88.39;95341.16;4358755;32;20193;-58
2022/08/22 05:07:23;;;;;;;0.83;0.83;;;;;;;16.73;88.28;95339.06;4370061;32;20197;-59
2022/08/22 05:10:09;;;;;;;0.73;0.73;;;;;;;16.71;88.32;95346.66;4356939;32;20191;-59
2022/08/22 05:12:42;;;;;;;1.57;1.47;;;;;;;16.68;88.48;95344.63;4359690;32;20216;-58
2022/08/22 05:15:22;;;;;;;1.67;1.57;;;;;;;16.70;88.21;95340.50;4354721;32;20201;-59
2022/08/22 05:17:52;;;;;;;1.80;1.70;;;;;;;16.84;87.65;95346.31;4360046;32;20212;-59
2022/08/22 05:20:22;;;;;;;1.37;1.37;;;;;;;16.69;88.29;95346.19;4358267;32;20184;-59
2022/08/22 05:22:56;;;;;;;1.27;1.27;;;;;;;16.73;88.43;95355.12;4364424;32;20268;-59
2022/08/22 05:25:27;;;;;;;1.10;1.10;;;;;;;16.47;89.14;95363.38;4361174;32;20227;-59
2022/08/22 05:28:04;;;;;;;1.80;1.70;;;;;;;16.27;90.01;95362.31;4372250;32;20207;-59
2022/08/22 05:30:32;;;;;;;1.23;1.23;;;;;;;16.38;90.03;95357.34;4358851;32;20200;-59
2022/08/22 05:33:00;;;;;;;1.57;1.27;;;;;;;16.37;90.24;95356.56;4343838;32;20200;-59
2022/08/22 05:35:33;;;;;;;2.53;1.63;;;;;;;16.46;89.99;95370.62;4358576;32;20271;-59
2022/08/22 05:38:01;;;;;;;9.27;1.60;;;;;;;16.60;89.69;95366.91;4363639;32;20271;-59
2022/08/22 05:40:29;;;;;;;1.90;1.80;;;;;;;16.47;90.13;95366.84;4349414;32;20191;-59
2022/08/22 05:42:56;;;;;;;2.20;2.10;;;;;;;16.64;89.75;95365.16;4358467;32;20197;-59
2022/08/22 05:45:23;;;;;;;1.43;0.90;;;;;;;16.54;90.44;95365.53;4356659;32;20177;-59
2022/08/22 05:48:01;;;;;;;1.43;1.43;;;;;;;16.70;90.18;95366.50;4342620;32;20188;-59
2022/08/22 05:50:42;;;;;;;2.33;2.00;;;;;;;16.67;90.34;95375.19;4356702;32;20293;-59
2022/08/22 05:53:32;;;;;;;2.60;2.40;;;;;;;16.71;89.90;95368.88;4357680;32;20213;-59
2022/08/22 05:56:12;;;;;;;3.30;2.20;;;;;;;16.72;89.54;95367.75;4350604;32;20189;-59
2022/08/22 05:58:37;;;;;;;1.30;1.30;;;;;;;16.78;89.33;95371.00;4349523;32;20197;-59
2022/08/22 06:01:24;;;;;;;1.97;1.63;;;;;;;16.81;89.66;95371.12;4359572;32;20206;-59
2022/08/22 06:04:25;;;;;;;3.77;1.57;;;;;;;16.91;89.19;95367.22;4355121;32;20268;-59
2022/08/22 06:07:05;;;;;;;2.30;0.93;;;;;;;16.92;88.71;95376.84;4347024;32;20208;-59
2022/08/22 06:09:41;;;;;;;1.87;1.77;;;;;;;17.02;88.54;95381.00;4360507;32;20203;-59
2022/08/22 06:12:16;;;;;;;2.37;2.00;;;;;;;17.16;88.22;95376.09;4360684;32;20192;-59
2022/08/22 06:14:44;;;;;;;1.90;1.80;;;;;;;16.91;89.55;95374.50;4357356;32;20231;-58
2022/08/22 06:17:11;;;;;;;2.20;2.10;;;;;;;17.00;89.29;95386.69;4367832;32;20181;-59
2022/08/22 06:19:44;;;;;;;2.00;1.90;;;;;;;17.07;89.04;95386.12;4363975;32;20177;-59
2022/08/22 06:22:13;;;;;;;3.60;2.17;;;;;;;17.16;88.66;95390.28;4359260;32;20225;-59
2022/08/22 06:24:39;;;;;;;1.73;1.70;;;;;;;17.35;88.50;95383.59;4358788;32;20169;-59
2022/08/22 06:27:09;;;;;;;3.77;2.40;;;;;;;17.34;89.04;95379.34;4373790;32;20186;-59
2022/08/22 06:29:39;;;;;;;2.03;1.97;;;;;;;17.36;88.94;95385.16;4370559;32;20184;-59
2022/08/22 06:32:16;;;;;;;2.00;1.90;;;;;;;17.39;88.27;95374.56;4368923;32;20203;-59
2022/08/22 06:34:45;;;;;;;2.60;2.50;;;;;;;17.50;87.53;95375.66;4357237;32;20185;-59
2022/08/22 06:37:19;;;;;;;1.57;1.57;;;;;;;17.65;86.63;95376.94;4357888;32;20185;-59
2022/08/22 06:39:48;;;;;;;2.97;2.80;;;;;;;17.78;85.63;95383.84;4355184;32;20186;-58
2022/08/22 06:42:21;;;;;;;3.17;2.57;;;;;;;17.85;85.39;95381.41;4365686;32;20180;-59
2022/08/22 06:44:58;;;;;;;1.20;1.07;;;;;;;17.90;85.49;95382.25;4357694;32;20185;-59
2022/08/22 06:47:27;;;;;;;2.37;2.27;;;;;;;18.06;84.27;95381.25;4370992;32;20228;-59
2022/08/22 06:49:59;;;;;;;1.87;1.77;;;;;;;18.09;83.78;95387.81;4375130;32;20265;-59
2022/08/22 06:52:28;;;;;;;2.37;1.93;;;;;;;18.07;84.22;95382.03;4363137;32;20199;-59
2022/08/22 06:55:01;;;;;;;2.20;2.10;;;;;;;18.17;84.06;95386.91;4372524;32;20315;-58
2022/08/22 06:57:33;;;;;;;2.97;2.77;;;;;;;18.27;83.71;95397.19;4370029;32;20276;-58
2022/08/22 07:00:06;;;;;;;2.90;2.73;;;;;;;18.39;83.12;95394.47;4360052;32;20181;-59
2022/08/22 07:03:00;;;;;;;4.47;3.10;;;;;;;18.37;83.13;95388.66;4376172;32;20196;-59
2022/08/22 07:05:33;;;;;;;3.17;3.00;;;;;;;18.41;83.59;95389.53;4359377;32;20422;-58
2022/08/22 07:08:05;;;;;;;17.73;13.00;;;;;;;18.43;83.89;95389.97;4361553;32;20227;-59
2022/08/22 07:10:30;;;;;;;3.47;3.30;;;;;;;18.51;83.58;95391.72;4360744;32;20195;-59
2022/08/22 07:12:58;;;;;;;3.67;3.37;;;;;;;18.48;84.09;95392.44;4345105;32;20299;-59
2022/08/22 07:15:35;;;;;;;3.13;2.87;;;;;;;18.53;84.55;95394.84;4355261;32;20239;-59
2022/08/22 07:18:07;;;;;;;3.07;2.87;;;;;;;18.57;84.99;95394.16;4366512;32;20200;-59
2022/08/22 07:20:43;;;;;;;3.63;3.33;;;;;;;18.62;85.03;95388.59;4370885;32;20245;-59
2022/08/22 07:23:11;;;;;;;5.63;3.80;;;;;;;18.70;83.80;95393.81;4369920;32;20233;-59
2022/08/22 07:26:13;;;;;;;3.53;3.30;;;;;;;18.76;83.73;95391.66;4360161;32;20173;-60
2022/08/22 07:28:57;;;;;;;2.60;2.50;;;;;;;18.82;83.56;95391.06;4349902;32;20204;-59
2022/08/22 07:31:46;;;;;;;3.30;3.10;;;;;;;18.95;84.19;95391.00;4362009;32;20193;-58
2022/08/22 07:34:38;;;;;;;32.63;16.47;;;;;;;18.95;83.18;95391.78;4352555;32;20185;-59
2022/08/22 07:37:06;;;;;;;7.60;5.20;;;;;;;19.15;82.68;95390.75;4344784;32;20176;-59
2022/08/22 07:39:37;;;;;;;2.43;2.33;;;;;;;19.11;82.57;95387.22;4360817;32;20204;-58
2022/08/22 07:42:05;;;;;;;2.77;2.57;;;;;;;19.20;82.42;95381.66;4353115;32;20248;-59
2022/08/22 07:44:40;;;;;;;2.73;2.63;;;;;;;19.32;81.80;95380.81;4370637;32;20313;-59
2022/08/22 07:47:15;;;;;;;3.60;3.30;;;;;;;19.37;82.53;95383.22;4351624;32;20184;-58
2022/08/22 07:49:53;;;;;;;3.20;2.10;;;;;;;19.37;82.69;95378.62;4359910;32;20168;-59
2022/08/22 07:52:21;;;;;;;1.90;1.80;;;;;;;19.47;79.37;95382.72;4372212;32;20203;-59
2022/08/22 07:54:49;;;;;;;2.00;1.90;;;;;;;19.64;77.81;95386.97;4364111;32;20230;-59
2022/08/22 07:57:40;;;;;;;1.30;1.30;;;;;;;19.64;77.62;95387.75;4359162;32;20243;-58
2022/08/22 08:00:13;;;;;;;1.93;1.83;;;;;;;19.73;77.15;95382.19;4358182;32;20193;-59
2022/08/22 08:02:46;;;;;;;2.07;1.97;;;;;;;19.74;76.68;95376.47;4348135;32;20186;-59
2022/08/22 08:05:13;;;;;;;1.37;1.37;;;;;;;19.81;76.98;95376.59;4359298;32;20193;-59
2022/08/22 08:07:42;;;;;;;1.07;1.07;;;;;;;19.84;75.39;95381.31;4368917;32;20196;-59
2022/08/22 08:10:13;;;;;;;2.00;1.90;;;;;;;19.94;75.76;95382.69;4345249;32;20208;-59
2022/08/22 08:12:47;;;;;;;1.90;1.80;;;;;;;19.92;74.51;95381.47;4358690;32;20193;-60
2022/08/22 08:15:19;;;;;;;1.37;1.37;;;;;;;20.01;73.67;95373.97;4352828;32;20180;-59
2022/08/22 08:17:48;;;;;;;1.47;1.37;;;;;;;20.04;74.19;95375.94;4355411;32;20221;-59
2022/08/22 08:20:17;;;;;;;1.17;1.17;;;;;;;20.00;71.47;95378.56;4357789;32;20190;-59
2022/08/22 08:22:44;;;;;;;5.03;4.73;;;;;;;20.02;69.85;95378.22;4359732;32;20185;-59
2022/08/22 08:25:17;;;;;;;1.97;1.87;;;;;;;20.03;70.84;95380.56;4352744;32;20211;-59
2022/08/22 08:30:43;;;;;;;1.10;1.10;;;;;;;20.17;68.87;95380.06;4362361;32;20203;-59
2022/08/22 08:33:15;;;;;;;1.47;1.43;;;;;;;20.18;68.80;95378.94;4360369;32;20189;-58
2022/08/22 08:35:44;;;;;;;1.33;1.33;;;;;;;20.29;68.07;95379.97;4358907;32;20181;-59
2022/08/22 08:38:21;;;;;;;0.93;0.93;;;;;;;20.38;67.83;95383.25;4353982;32;20212;-58
2022/08/22 08:40:54;;;;;;;1.17;1.17;;;;;;;20.40;66.38;95385.59;4360064;32;20189;-58
2022/08/22 08:43:38;;;;;;;0.60;0.60;;;;;;;20.35;65.99;95378.56;4357634;32;20276;-59
2022/08/22 08:46:38;;;;;;;1.30;1.20;;;;;;;20.30;66.07;95376.13;4368174;32;20196;-59
2022/08/22 08:49:10;;;;;;;1.10;1.10;;;;;;;20.35;67.72;95375.84;4368403;32;20185;-59
2022/08/22 08:52:01;;;;;;;1.47;1.37;;;;;;;20.35;68.10;95372.38;4358161;32;20201;-59
2022/08/22 08:54:55;;;;;;;1.30;1.30;;;;;;;20.46;66.30;95366.09;4373120;32;20284;-59
2022/08/22 08:58:16;;;;;;;0.97;0.97;;;;;;;20.45;66.46;95367.22;4362501;32;20180;-59
2022/08/22 09:00:44;;;;;;;3.30;1.23;;;;;;;20.63;64.57;95378.34;4305491;32;20185;-58
2022/08/22 09:03:22;;;;;;;1.47;1.37;;;;;;;20.57;64.14;95379.78;4368078;32;20215;-59
2022/08/22 09:06:15;;;;;;;0.97;0.97;;;;;;;20.57;63.63;95369.00;4372378;32;20203;-59
2022/08/22 09:09:09;;;;;;;1.27;1.23;;;;;;;20.54;65.21;95367.03;4369119;32;20185;-59
2022/08/22 09:11:53;;;;;;;1.10;1.10;;;;;;;20.55;64.29;95361.28;4359829;32;20177;-59
2022/08/22 09:14:37;;;;;;;0.80;0.80;;;;;;;20.49;64.19;95365.38;4360791;32;20238;-58
2022/08/22 09:17:24;;;;;;;0.80;0.80;;;;;;;20.79;61.30;95370.94;4360658;32;20220;-58
2022/08/22 09:19:52;;;;;;;0.83;0.83;;;;;;;20.88;58.55;95373.44;4364485;32;20176;-59
2022/08/22 09:22:23;;;;;;;1.00;1.00;;;;;;;20.85;58.58;95368.75;4361246;32;20227;-59
2022/08/22 09:25:03;;;;;;;0.40;0.40;;;;;;;20.92;58.30;95374.28;4369775;32;20189;-59
2022/08/22 09:27:58;;;;;;;0.90;0.87;;;;;;;20.91;56.90;95370.03;4358368;32;20189;-59
2022/08/22 09:30:30;;;;;;;0.90;0.90;;;;;;;21.03;55.91;95377.94;4357530;32;20180;-59
2022/08/22 09:33:03;;;;;;;0.77;0.77;;;;;;;21.03;54.91;95367.16;4365359;32;20193;-59
2022/08/22 09:36:12;;;;;;;0.27;0.27;;;;;;;21.01;55.30;95372.13;4362007;32;20241;-59
2022/08/22 09:38:44;;;;;;;0.20;0.20;;;;;;;21.10;53.35;95372.69;4342437;32;20189;-59
2022/08/22 09:41:12;;;;;;;2.40;1.40;;;;;;;21.08;51.75;95369.56;4368449;32;20180;-59
2022/08/22 09:43:49;;;;;;;0.80;0.80;;;;;;;21.04;53.16;95370.62;4366451;32;20181;-59
2022/08/22 09:46:21;;;;;;;0.90;0.90;;;;;;;21.02;52.55;95370.97;4355968;32;20220;-59
2022/08/22 09:48:58;;;;;;;0.67;0.60;;;;;;;21.06;52.20;95362.97;4356602;32;20195;-59
2022/08/22 09:51:37;;;;;;;1.23;0.80;;;;;;;21.11;54.50;95359.97;4358422;32;20239;-61
2022/08/22 09:54:05;;;;;;;0.83;0.60;;;;;;;21.23;53.59;95359.81;4359164;32;20212;-58
2022/08/22 09:56:33;;;;;;;1.43;1.33;;;;;;;21.29;51.62;95365.69;4359268;32;20189;-59
2022/08/22 09:59:12;;;;;;;0.60;0.60;;;;;;;21.38;49.99;95363.53;4363764;32;20234;-59
2022/08/22 10:02:08;;;;;;;0.57;0.57;;;;;;;21.34;50.20;95363.47;4363586;32;20185;-59
2022/08/22 10:04:39;;;;;;;0.70;0.70;;;;;;;21.43;47.62;95358.59;4365750;32;20173;-59
2022/08/22 10:07:27;;;;;;;0.30;0.30;;;;;;;21.41;46.87;95366.28;4344835;32;20313;-59
2022/08/22 10:10:33;;;;;;;0.60;0.60;;;;;;;21.45;47.93;95364.41;4370976;32;20193;-59
2022/08/22 10:13:11;;;;;;;0.83;0.83;;;;;;;21.51;49.09;95360.28;4363420;32;20194;-59
2022/08/22 10:15:42;;;;;;;0.97;0.63;;;;;;;21.57;48.36;95361.53;4370714;32;20188;-60
2022/08/22 10:18:44;;;;;;;1.03;0.80;;;;;;;21.60;48.71;95358.13;4357719;32;20181;-59
2022/08/22 10:21:19;;;;;;;1.30;1.30;;;;;;;21.75;51.16;95371.81;4359464;32;20203;-59
2022/08/22 10:23:54;;;;;;;1.43;1.33;;;;;;;21.64;51.55;95368.16;4373428;32;20223;-59
2022/08/22 10:26:38;;;;;;;0.70;0.70;;;;;;;21.83;51.99;95360.75;4362196;32;20196;-59
2022/08/22 10:29:41;;;;;;;0.67;0.60;;;;;;;21.89;51.58;95356.59;4366123;32;20173;-59
2022/08/22 10:32:24;;;;;;;0.60;0.60;;;;;;;21.86;51.26;95362.72;4355922;32;20195;-60
2022/08/22 10:34:55;;;;;;;0.40;0.40;;;;;;;21.87;51.93;95356.19;4365523;32;20188;-59
2022/08/22 10:37:50;;;;;;;0.70;0.70;;;;;;;22.04;50.69;95357.59;4363286;32;20235;-58
2022/08/22 10:40:40;;;;;;;0.87;0.87;;;;;;;22.08;49.64;95347.62;4356753;32;20186;-59
2022/08/22 10:43:20;;;;;;;0.40;0.40;;;;;;;22.23;49.66;95362.13;4365793;32;20214;-59
2022/08/22 10:45:51;;;;;;;0.47;0.47;;;;;;;22.21;49.59;95353.59;4368527;32;20299;-59
2022/08/22 10:48:52;;;;;;;1.03;0.63;;;;;;;22.27;47.56;95354.81;4366332;32;20189;-58
2022/08/22 10:51:43;;;;;;;0.40;0.40;;;;;;;22.25;47.32;95355.16;4367372;32;20248;-59
2022/08/22 10:54:33;;;;;;;0.70;0.70;;;;;;;22.35;48.55;95348.34;4360428;32;20184;-59
2022/08/22 10:57:25;;;;;;;1.40;0.70;;;;;;;22.31;48.67;95344.03;4368049;32;20192;-58
2022/08/22 11:00:01;;;;;;;0.80;0.80;;;;;;;22.45;49.40;95349.63;4365253;32;20181;-59
2022/08/22 11:02:44;;;;;;;0.60;0.60;;;;;;;22.43;50.22;95352.72;4358395;32;20283;-59
2022/08/22 11:05:15;;;;;;;3.33;0.97;;;;;;;22.49;50.29;95345.03;4372584;32;20197;-59
2022/08/22 11:07:43;;;;;;;0.97;0.97;;;;;;;22.37;50.52;95340.66;4361243;32;20227;-59
2022/08/22 11:10:20;;;;;;;0.87;0.87;;;;;;;22.48;49.79;95349.66;4358851;32;20223;-59
2022/08/22 11:13:25;;;;;;;0.70;0.70;;;;;;;22.47;51.51;95350.03;4347979;32;20207;-59
2022/08/22 11:16:25;;;;;;;0.87;0.87;;;;;;;22.51;50.06;95348.16;4349443;32;20247;-59
2022/08/22 11:19:09;;;;;;;0.80;0.80;;;;;;;22.56;48.75;95343.19;4341792;32;20184;-59
2022/08/22 11:21:35;;;;;;;0.40;0.40;;;;;;;22.49;49.11;95347.72;4351377;32;20199;-58
2022/08/22 11:24:26;;;;;;;0.60;0.60;;;;;;;22.48;49.05;95349.66;4362235;32;20185;-58
2022/08/22 11:26:57;;;;;;;1.13;0.83;;;;;;;22.43;48.01;95352.72;4323888;32;20204;-58
2022/08/22 11:29:39;;;;;;;1.57;1.47;;;;;;;22.52;47.51;95350.47;4358762;32;20200;-59
2022/08/22 11:32:43;;;;;;;0.50;0.50;;;;;;;22.49;47.46;95348.50;4345605;32;20192;-59
2022/08/22 11:35:22;;;;;;;0.60;0.60;;;;;;;22.37;48.13;95359.59;4358127;32;20177;-59
2022/08/22 11:38:00;;;;;;;0.30;0.30;;;;;;;22.43;47.88;95355.41;4345644;32;20195;-59
2022/08/22 11:40:44;;;;;;;0.40;0.40;;;;;;;22.42;49.41;95350.38;4344696;32;20192;-58
2022/08/22 11:43:18;;;;;;;1.30;1.20;;;;;;;22.54;47.95;95342.78;4368121;32;20181;-59
2022/08/22 11:45:52;;;;;;;0.67;0.67;;;;;;;22.67;47.71;95342.53;4363658;32;20194;-59
2022/08/22 11:48:52;;;;;;;0.93;0.93;;;;;;;22.65;47.24;95350.25;4345649;32;20173;-59
2022/08/22 11:51:39;;;;;;;0.70;0.70;;;;;;;22.64;44.35;95363.00;4343913;32;20206;-59
2022/08/22 11:54:23;;;;;;;0.77;0.77;;;;;;;22.67;44.34;95356.81;4353517;32;20177;-59
2022/08/22 11:57:02;;;;;;;0.83;0.83;;;;;;;22.71;44.57;95360.34;4343345;32;20189;-58
2022/08/22 11:59:39;;;;;;;0.77;0.77;;;;;;;22.61;45.17;95353.69;4368055;32;20244;-59
2022/08/22 12:02:29;;;;;;;0.40;0.40;;;;;;;22.71;45.14;95356.88;4359189;32;20204;-58
2022/08/22 12:05:09;;;;;;;0.23;0.23;;;;;;;22.68;44.08;95344.84;4367860;32;20220;-59
2022/08/22 12:07:39;;;;;;;0.73;0.73;;;;;;;22.78;43.87;95351.56;4358987;32;20203;-59
2022/08/22 12:10:13;;;;;;;2.13;0.73;;;;;;;22.83;44.22;95349.31;4360400;32;20186;-59
2022/08/22 12:12:58;;;;;;;2.33;0.53;;;;;;;22.93;43.59;95347.84;4359884;32;20214;-59
2022/08/22 12:15:35;;;;;;;0.47;0.47;;;;;;;22.96;40.40;95350.59;4354271;32;20207;-58
2022/08/22 12:18:16;;;;;;;0.57;0.57;;;;;;;22.97;40.83;95343.28;4367042;32;20199;-59
2022/08/22 12:20:53;;;;;;;1.67;0.60;;;;;;;22.95;41.03;95334.75;4354835;32;20264;-59
2022/08/22 12:23:43;;;;;;;0.43;0.43;;;;;;;22.89;41.45;95341.63;4358587;32;20285;-59
2022/08/22 12:26:27;;;;;;;1.10;0.87;;;;;;;22.78;42.61;95346.94;4343718;32;20192;-59
2022/08/22 12:29:07;;;;;;;0.93;0.87;;;;;;;22.86;42.88;95337.00;4362672;32;20207;-59
2022/08/22 12:31:42;;;;;;;1.03;1.00;;;;;;;22.92;42.19;95335.47;4373728;32;20267;-59
2022/08/22 12:34:22;;;;;;;0.83;0.83;;;;;;;22.78;42.06;95327.22;4372531;32;20196;-60
2022/08/22 12:36:54;;;;;;;0.40;0.40;;;;;;;22.79;41.78;95332.28;4353296;32;20252;-59
2022/08/22 12:39:35;;;;;;;1.00;0.10;;;;;;;22.83;41.76;95332.31;4359112;32;20264;-59